Time;durP1;ratioP1;P1;durP2;ratioP2;P2;SDS_P1;SDS_P2;PMS_P1;PMS_P2;Temp;Humidity;BMP_temperature;BMP_pressure;BME280_temperature;BME280_humidity;BME280_pressure;Samples;Min_cycle;Max_cycle;Signal;HPM_P1;HPM_P2
2022/11/16 00:01:05;;;;;;;13.97;11.60;;;;;;;10.65;100.00;99707.34;5043097;28;20508;-85
2022/11/16 00:03:32;;;;;;;12.70;10.90;;;;;;;10.63;100.00;99699.47;5052443;28;20119;-87
2022/11/16 00:06:04;;;;;;;13.57;12.17;;;;;;;10.63;100.00;99691.34;5053566;28;20036;-86
2022/11/16 00:08:32;;;;;;;12.93;11.53;;;;;;;10.66;100.00;99691.91;5032372;28;20091;-85
2022/11/16 00:11:09;;;;;;;13.00;11.67;;;;;;;10.64;100.00;99692.97;5072346;28;20115;-87
2022/11/16 00:13:36;;;;;;;13.60;11.57;;;;;;;10.67;100.00;99696.28;5074007;28;20043;-86
2022/11/16 00:16:02;;;;;;;13.17;11.77;;;;;;;10.66;100.00;99689.19;5056013;28;20035;-86
2022/11/16 00:18:27;;;;;;;12.40;11.10;;;;;;;10.64;100.00;99684.84;5049184;28;20132;-86
2022/11/16 00:20:53;;;;;;;13.03;11.63;;;;;;;10.68;100.00;99701.44;5026567;28;20124;-87
2022/11/16 00:23:19;;;;;;;15.30;12.00;;;;;;;10.68;100.00;99695.22;5029561;28;20446;-84
2022/11/16 00:25:44;;;;;;;15.00;11.70;;;;;;;10.69;100.00;99704.97;5045124;28;20060;-85
2022/11/16 00:28:10;;;;;;;14.87;11.83;;;;;;;10.68;100.00;99701.44;5025184;28;20025;-87
2022/11/16 00:30:35;;;;;;;14.63;12.30;;;;;;;10.63;100.00;99704.03;5045554;28;20033;-86
2022/11/16 00:33:02;;;;;;;15.10;13.17;;;;;;;10.69;100.00;99699.56;5061951;28;20162;-88
2022/11/16 00:35:27;;;;;;;14.07;12.37;;;;;;;10.62;100.00;99695.13;5041303;28;20163;-88
2022/11/16 00:37:52;;;;;;;14.13;12.63;;;;;;;10.67;100.00;99702.50;5062525;28;20103;-87
2022/11/16 00:40:18;;;;;;;14.90;13.30;;;;;;;10.66;100.00;99691.91;5036418;28;20040;-87
2022/11/16 00:42:43;;;;;;;16.63;13.93;;;;;;;10.67;100.00;99697.09;5051218;28;20029;-89
2022/11/16 00:45:09;;;;;;;15.90;14.20;;;;;;;10.68;100.00;99709.56;5056248;28;20463;-87
2022/11/16 00:47:34;;;;;;;18.07;14.33;;;;;;;10.68;100.00;99701.44;5029290;28;20104;-88
2022/11/16 00:50:00;;;;;;;16.30;13.70;;;;;;;10.68;100.00;99692.50;5037304;28;20474;-86
2022/11/16 00:52:25;;;;;;;16.03;14.23;;;;;;;10.64;100.00;99681.31;5037180;28;20030;-86
2022/11/16 00:54:51;;;;;;;16.37;14.40;;;;;;;10.71;100.00;99683.91;5046279;28;20036;-86
2022/11/16 00:57:16;;;;;;;16.80;14.50;;;;;;;10.72;100.00;99678.22;5026144;28;20033;-86
2022/11/16 00:59:41;;;;;;;15.07;13.57;;;;;;;10.73;100.00;99679.03;5054998;28;20485;-88
2022/11/16 01:02:07;;;;;;;16.80;15.00;;;;;;;10.69;100.00;99664.34;5046005;28;20473;-86
2022/11/16 01:04:32;;;;;;;16.57;14.50;;;;;;;10.65;100.00;99661.31;5052276;28;20346;-85
2022/11/16 01:06:57;;;;;;;17.50;15.63;;;;;;;10.72;100.00;99669.28;5047621;28;20039;-87
2022/11/16 01:09:23;;;;;;;17.47;15.63;;;;;;;10.70;100.00;99664.09;5052343;28;20372;-86
2022/11/16 01:14:32;;;;;;;17.67;15.10;;;;;;;10.70;100.00;99661.38;5047022;28;20095;-86
2022/11/16 01:16:57;;;;;;;17.27;15.43;;;;;;;10.70;100.00;99663.28;5029336;28;20045;-84
2022/11/16 01:19:22;;;;;;;18.13;16.00;;;;;;;10.71;100.00;99668.44;5054623;28;20040;-87
2022/11/16 01:22:03;;;;;;;18.93;16.03;;;;;;;10.64;100.00;99668.59;5052258;28;20104;-87
2022/11/16 01:24:29;;;;;;;17.17;15.03;;;;;;;10.76;100.00;99673.16;5029655;28;20024;-90
2022/11/16 01:26:58;;;;;;;16.47;14.60;;;;;;;10.81;100.00;99674.06;5055316;28;20031;-88
2022/11/16 01:29:29;;;;;;;17.20;14.67;;;;;;;10.84;100.00;99670.06;5044853;28;20029;-86
2022/11/16 01:31:55;;;;;;;15.70;13.97;;;;;;;10.82;100.00;99661.34;5035051;28;20025;-88
2022/11/16 01:34:21;;;;;;;15.80;13.30;;;;;;;10.79;100.00;99645.56;5047239;28;20570;-87
2022/11/16 01:36:46;;;;;;;15.07;13.47;;;;;;;10.75;100.00;99650.66;5053910;28;20036;-86
2022/11/16 01:39:12;;;;;;;16.80;14.23;;;;;;;10.77;100.00;99658.53;5032553;28;20044;-86
2022/11/16 01:41:39;;;;;;;15.73;14.03;;;;;;;10.78;100.00;99657.47;5044131;28;20098;-87
2022/11/16 01:44:25;;;;;;;15.53;13.90;;;;;;;10.75;100.00;99650.66;5050633;28;20032;-86
2022/11/16 01:46:51;;;;;;;16.70;14.80;;;;;;;10.76;100.00;99646.06;5058543;28;20028;-87
2022/11/16 01:49:19;;;;;;;16.70;14.90;;;;;;;10.76;100.00;99646.06;5022731;28;20532;-86
2022/11/16 01:51:49;;;;;;;16.57;14.77;;;;;;;10.75;100.00;99642.50;5044963;28;20037;-88
2022/11/16 01:54:15;;;;;;;17.27;15.23;;;;;;;10.74;100.00;99642.75;5046351;28;20120;-86
2022/11/16 01:56:44;;;;;;;16.90;15.10;;;;;;;10.71;100.00;99635.13;5065227;28;20028;-87
2022/11/16 01:59:11;;;;;;;17.73;14.90;;;;;;;10.76;100.00;99643.34;5055822;28;20052;-86
2022/11/16 02:01:37;;;;;;;18.53;15.77;;;;;;;10.76;100.00;99636.03;5017511;28;20080;-88
2022/11/16 02:04:03;;;;;;;18.03;16.10;;;;;;;10.76;100.00;99640.66;5033420;28;20031;-87
2022/11/16 02:06:43;;;;;;;18.53;15.63;;;;;;;10.77;100.00;99642.28;5051662;28;20029;-86
2022/11/16 02:12:44;;;;;;;17.93;16.03;;;;;;;10.83;100.00;99640.50;5045226;28;20044;-89
2022/11/16 02:15:28;;;;;;;18.50;16.50;;;;;;;10.83;100.00;99641.31;5035311;28;21499;-86
2022/11/16 02:18:08;;;;;;;19.23;17.17;;;;;;;10.81;100.00;99632.59;5034477;28;20030;-86
2022/11/16 02:21:03;;;;;;;18.93;16.37;;;;;;;10.84;100.00;99637.53;5043668;28;20040;-84
2022/11/16 02:24:02;;;;;;;19.25;16.77;;;;;;;10.87;100.00;99626.22;5047676;28;20070;-87
2022/11/16 02:27:00;;;;;;;19.40;17.17;;;;;;;10.88;100.00;99630.56;5048837;28;20530;-85
2022/11/16 02:29:38;;;;;;;19.57;17.53;;;;;;;10.98;100.00;99627.22;5020596;28;20029;-85
2022/11/16 02:32:28;;;;;;;19.67;16.90;;;;;;;11.03;100.00;99631.88;5048010;28;20020;-86
2022/11/16 02:35:02;;;;;;;19.80;16.63;;;;;;;11.08;100.00;99631.97;5039767;28;20025;-85
2022/11/16 02:37:33;;;;;;;19.60;16.88;;;;;;;11.02;100.00;99619.44;5044091;28;20025;-85
2022/11/16 02:40:02;;;;;;;18.67;15.57;;;;;;;11.09;100.00;99620.09;5056778;28;20039;-85
2022/11/16 02:42:40;;;;;;;18.00;15.73;;;;;;;11.08;100.00;99623.84;5053935;28;20031;-85
2022/11/16 02:45:11;;;;;;;18.40;16.40;;;;;;;11.10;100.00;99627.16;5039076;28;20056;-86
2022/11/16 02:47:39;;;;;;;19.40;16.40;;;;;;;11.11;100.00;99631.50;5055365;28;20059;-85
2022/11/16 02:50:13;;;;;;;18.03;15.17;;;;;;;11.10;100.00;99629.88;5032618;28;20373;-86
2022/11/16 02:52:38;;;;;;;17.45;15.00;;;;;;;11.11;100.00;99631.50;5024883;28;20480;-86
2022/11/16 02:55:05;;;;;;;17.03;14.37;;;;;;;11.10;100.00;99635.28;5054383;28;20025;-86
2022/11/16 02:57:42;;;;;;;17.77;15.23;;;;;;;11.08;100.00;99642.81;5016445;28;20044;-86
2022/11/16 03:00:14;;;;;;;17.93;15.00;;;;;;;11.04;100.00;99641.69;5035449;28;20424;-86
2022/11/16 03:02:53;;;;;;;19.27;16.00;;;;;;;11.06;100.00;99639.56;5049044;28;20086;-87
2022/11/16 03:06:00;;;;;;;19.53;16.70;;;;;;;11.07;100.00;99641.19;5040597;28;20420;-87
2022/11/16 03:08:39;;;;;;;17.83;15.57;;;;;;;11.00;100.00;99638.63;5026594;28;20595;-89
2022/11/16 03:13:55;;;;;;;13.50;11.37;;;;;;;10.89;100.00;99636.81;5050175;28;20036;-87
2022/11/16 03:16:28;;;;;;;11.33;10.03;;;;;;;10.94;100.00;99643.13;5016856;28;20113;-88
2022/11/16 03:18:57;;;;;;;11.17;10.00;;;;;;;10.93;100.00;99644.22;5016687;28;20032;-88
2022/11/16 03:21:48;;;;;;;10.23;9.13;;;;;;;10.95;100.00;99638.56;5016854;28;20428;-87
2022/11/16 03:24:14;;;;;;;10.57;8.60;;;;;;;10.88;100.00;99646.84;5029536;28;20059;-87
2022/11/16 03:27:12;;;;;;;8.70;7.83;;;;;;;10.86;100.00;99640.81;5044521;28;20457;-86
2022/11/16 03:29:59;;;;;;;9.43;7.80;;;;;;;10.80;100.00;99634.50;5023110;28;20069;-87
2022/11/16 03:33:03;;;;;;;8.20;7.37;;;;;;;10.80;100.00;99639.09;5032915;28;20462;-86
2022/11/16 03:35:42;;;;;;;8.60;7.73;;;;;;;10.70;100.00;99633.47;5038836;28;20364;-86
2022/11/16 03:38:10;;;;;;;8.20;7.40;;;;;;;10.71;100.00;99649.47;5055867;28;20028;-85
2022/11/16 03:40:38;;;;;;;9.50;8.00;;;;;;;10.69;100.00;99642.66;5031479;28;20040;-86
2022/11/16 03:43:05;;;;;;;9.00;8.10;;;;;;;10.60;100.00;99629.50;5036027;28;20029;-85
2022/11/16 03:45:31;;;;;;;9.90;8.50;;;;;;;10.66;100.00;99645.88;5025245;28;20033;-85
2022/11/16 03:47:57;;;;;;;11.13;7.93;;;;;;;10.66;100.00;99651.28;5052690;28;20028;-85
2022/11/16 03:50:22;;;;;;;11.07;8.27;;;;;;;10.66;100.00;99662.94;5046242;28;20074;-87
2022/11/16 03:52:48;;;;;;;10.67;8.57;;;;;;;10.60;100.00;99661.19;5053252;28;20078;-86
2022/11/16 03:55:13;;;;;;;9.53;8.33;;;;;;;10.57;100.00;99651.66;5016395;28;20059;-84
2022/11/16 03:57:38;;;;;;;11.47;8.80;;;;;;;10.53;100.00;99665.94;5043367;28;20036;-85
2022/11/16 04:00:08;;;;;;;9.77;8.00;;;;;;;10.66;100.00;99679.19;5041011;28;20079;-86
2022/11/16 04:02:33;;;;;;;11.60;8.00;;;;;;;10.69;100.00;99672.47;5016407;28;20033;-86
2022/11/16 04:24:21;;;;;;;5.43;3.70;;;;;;;10.27;100.00;99687.03;5047450;28;20048;-86
2022/11/16 04:29:36;;;;;;;6.07;3.90;;;;;;;10.14;100.00;99693.53;5060803;28;20492;-87
2022/11/16 04:37:48;;;;;;;5.22;3.28;;;;;;;10.06;100.00;99686.59;5042550;28;20048;-87
2022/11/16 04:40:18;;;;;;;4.70;2.83;;;;;;;10.03;100.00;99703.28;5053116;28;20036;-87
2022/11/16 04:42:53;;;;;;;5.53;3.10;;;;;;;9.96;100.00;99699.91;5055309;28;20021;-88
2022/11/16 04:48:02;;;;;;;4.00;3.00;;;;;;;9.98;100.00;99705.88;5040873;28;20002;-88
2022/11/16 04:50:28;;;;;;;4.40;2.90;;;;;;;9.92;100.00;99704.94;5035850;28;20112;-87
2022/11/16 04:52:53;;;;;;;7.63;3.53;;;;;;;9.86;100.00;99703.19;5046340;28;20033;-87
2022/11/16 04:55:18;;;;;;;4.63;3.30;;;;;;;9.87;100.00;99710.22;5059257;28;20037;-88
2022/11/16 04:57:44;;;;;;;8.00;3.20;;;;;;;9.86;100.00;99713.19;5027778;28;20107;-88
2022/11/16 05:00:10;;;;;;;7.60;3.43;;;;;;;9.85;100.00;99720.47;5053266;28;20056;-87
2022/11/16 05:02:35;;;;;;;6.30;3.50;;;;;;;9.83;100.00;99719.06;5075508;28;20373;-87
2022/11/16 05:05:00;;;;;;;6.87;3.47;;;;;;;9.80;100.00;99720.34;5072858;28;20024;-87
2022/11/16 05:07:26;;;;;;;8.40;3.53;;;;;;;9.82;100.00;99731.78;5074168;28;20039;-87
2022/11/16 05:09:51;;;;;;;5.03;3.30;;;;;;;9.81;100.00;99730.13;5067263;28;20102;-87
2022/11/16 05:12:24;;;;;;;7.27;3.17;;;;;;;9.72;100.00;99724.22;5057761;28;20028;-87
2022/11/16 05:14:56;;;;;;;7.50;3.50;;;;;;;9.79;100.00;99741.19;5059417;28;20449;-88
2022/11/16 05:17:22;;;;;;;7.83;3.43;;;;;;;9.74;100.00;99737.53;5076687;28;20457;-86
2022/11/16 05:22:32;;;;;;;7.95;3.72;;;;;;;9.65;100.00;99741.63;5056867;28;20079;-86
2022/11/16 05:24:58;;;;;;;6.93;3.90;;;;;;;9.64;100.00;99743.50;5072792;28;20032;-86
2022/11/16 05:27:24;;;;;;;8.13;3.67;;;;;;;9.66;100.00;99743.28;5069248;28;20115;-86
2022/11/16 05:29:50;;;;;;;7.80;3.60;;;;;;;9.69;100.00;99740.91;5060527;28;20028;-86
2022/11/16 05:32:17;;;;;;;9.97;3.80;;;;;;;9.63;100.00;99731.88;5058583;28;20028;-86
2022/11/16 05:34:42;;;;;;;4.93;3.57;;;;;;;9.63;100.00;99747.28;5055419;28;20338;-87
2022/11/16 05:37:08;;;;;;;7.77;3.97;;;;;;;9.54;100.00;99727.03;5093988;28;20039;-87
2022/11/16 05:39:34;;;;;;;9.50;4.30;;;;;;;9.56;100.00;99739.28;5080083;28;20035;-86
2022/11/16 05:42:00;;;;;;;6.63;3.43;;;;;;;9.51;100.00;99735.63;5065147;28;20032;-86
2022/11/16 05:44:25;;;;;;;7.43;3.70;;;;;;;9.50;100.00;99732.06;5082568;28;20041;-86
2022/11/16 05:46:51;;;;;;;5.67;3.80;;;;;;;9.39;100.00;99728.28;5069170;28;20033;-86
2022/11/16 05:49:17;;;;;;;10.67;3.90;;;;;;;9.40;100.00;99737.25;5053595;28;20032;-86
2022/11/16 05:51:44;;;;;;;7.73;3.77;;;;;;;9.35;100.00;99721.69;5053767;28;20484;-87
2022/11/16 05:54:17;;;;;;;9.30;4.03;;;;;;;9.32;100.00;99729.47;5074908;28;20479;-86
2022/11/16 05:56:43;;;;;;;7.67;3.80;;;;;;;9.25;100.00;99724.97;5065942;28;20103;-87
2022/11/16 05:59:12;;;;;;;9.93;3.83;;;;;;;9.24;100.00;99730.59;5076928;28;20469;-87
2022/11/16 06:01:37;;;;;;;10.80;3.97;;;;;;;9.18;100.00;99729.66;5062319;28;20061;-86
2022/11/16 06:04:02;;;;;;;10.57;4.50;;;;;;;9.16;100.00;99737.16;5047121;28;20029;-86
2022/11/16 06:06:28;;;;;;;6.13;3.73;;;;;;;9.10;100.00;99735.38;5035273;28;20068;-87
2022/11/16 06:08:53;;;;;;;8.23;4.00;;;;;;;9.06;100.00;99742.31;5044054;28;20380;-87
2022/11/16 06:11:19;;;;;;;9.97;4.47;;;;;;;8.99;100.00;99749.66;5039702;28;20056;-88
2022/11/16 06:13:45;;;;;;;11.00;4.07;;;;;;;8.91;100.00;99745.41;5048191;28;20461;-87
2022/11/16 06:16:11;;;;;;;7.90;4.47;;;;;;;8.89;100.00;99751.00;5049615;28;20108;-88
2022/11/16 06:18:41;;;;;;;11.83;4.70;;;;;;;8.88;100.00;99753.94;5051257;28;20043;-88
2022/11/16 06:21:08;;;;;;;16.63;8.63;;;;;;;8.80;100.00;99749.69;5039491;28;20115;-87
2022/11/16 06:23:34;;;;;;;14.03;6.90;;;;;;;8.80;100.00;99752.41;5042470;28;20032;-87
2022/11/16 06:26:00;;;;;;;12.63;5.93;;;;;;;8.84;100.00;99760.84;5040740;28;20041;-88
2022/11/16 06:28:26;;;;;;;12.70;5.67;;;;;;;8.80;100.00;99755.09;5031811;28;20554;-88
2022/11/16 06:30:51;;;;;;;10.57;6.00;;;;;;;8.73;100.00;99754.34;5031171;28;20033;-88
2022/11/16 06:33:17;;;;;;;10.90;6.23;;;;;;;8.76;100.00;99759.31;5031970;28;20055;-87
2022/11/16 06:35:42;;;;;;;12.10;5.90;;;;;;;8.79;100.00;99764.25;5031684;28;20037;-88
2022/11/16 06:38:08;;;;;;;12.57;6.13;;;;;;;8.72;100.00;99769.72;5031155;28;20079;-87
2022/11/16 06:40:33;;;;;;;12.20;6.33;;;;;;;8.71;100.00;99778.06;5031091;28;20196;-88
2022/11/16 06:42:58;;;;;;;11.47;6.20;;;;;;;8.70;100.00;99774.50;5035303;28;20036;-88
2022/11/16 06:45:25;;;;;;;12.03;6.63;;;;;;;8.65;100.00;99774.38;5038106;28;20100;-87
2022/11/16 06:47:50;;;;;;;15.20;7.03;;;;;;;8.60;100.00;99788.53;5042562;28;20033;-87
2022/11/16 06:50:18;;;;;;;15.43;8.07;;;;;;;8.54;100.00;99789.47;5012766;28;20459;-88
2022/11/16 06:52:47;;;;;;;16.03;7.80;;;;;;;8.54;100.00;99794.88;5035881;28;20033;-87
2022/11/16 06:55:13;;;;;;;14.30;6.77;;;;;;;8.55;100.00;99783.00;5060396;28;20120;-87
2022/11/16 06:57:39;;;;;;;16.13;7.77;;;;;;;8.51;100.00;99789.06;5031378;28;20037;-87
2022/11/16 07:00:05;;;;;;;16.50;7.63;;;;;;;8.49;100.00;99785.78;5031262;28;20757;-88
2022/11/16 07:02:30;;;;;;;14.73;7.93;;;;;;;8.52;100.00;99802.34;5034329;28;20144;-88
2022/11/16 07:04:56;;;;;;;15.50;7.23;;;;;;;8.49;100.00;99788.50;5030423;28;20482;-87
2022/11/16 07:07:21;;;;;;;15.60;8.07;;;;;;;8.58;100.00;99790.66;5030588;28;20081;-88
2022/11/16 07:09:46;;;;;;;18.80;9.77;;;;;;;8.53;100.00;99798.59;5030409;28;20038;-89
2022/11/16 07:12:12;;;;;;;16.30;7.63;;;;;;;8.50;100.00;99798.22;5030745;28;20069;-89
2022/11/16 07:14:37;;;;;;;11.90;6.27;;;;;;;8.60;100.00;99799.34;5030244;28;20049;-87
2022/11/16 07:17:02;;;;;;;14.50;6.53;;;;;;;8.61;100.00;99797.50;5029398;28;20115;-86
2022/11/16 07:19:28;;;;;;;13.40;6.10;;;;;;;8.55;100.00;99791.09;5029893;28;20159;-85
2022/11/16 07:21:53;;;;;;;12.77;5.53;;;;;;;8.56;100.00;99795.44;5030697;28;20393;-86
2022/11/16 07:24:18;;;;;;;13.60;6.13;;;;;;;8.55;100.00;99804.59;5030746;28;20131;-86
2022/11/16 07:26:44;;;;;;;12.13;5.57;;;;;;;8.59;100.00;99805.81;5029630;28;20041;-85
2022/11/16 07:29:09;;;;;;;13.30;5.77;;;;;;;8.62;100.00;99807.22;5030842;28;20051;-87
2022/11/16 07:31:34;;;;;;;14.83;6.17;;;;;;;8.57;100.00;99809.78;5031211;28;20140;-85
2022/11/16 07:34:00;;;;;;;12.67;6.40;;;;;;;8.55;100.00;99812.69;5030588;28;20168;-86
2022/11/16 07:36:25;;;;;;;18.57;7.33;;;;;;;8.57;100.00;99824.09;5011576;28;20088;-86
2022/11/16 07:38:50;;;;;;;17.10;6.90;;;;;;;8.56;100.00;99824.34;5003243;28;20044;-88
2022/11/16 07:41:17;;;;;;;13.50;6.77;;;;;;;8.54;100.00;99819.16;5030491;28;20138;-86
2022/11/16 07:43:43;;;;;;;14.43;7.20;;;;;;;8.58;100.00;99836.56;5012399;28;20400;-86
2022/11/16 07:46:18;;;;;;;17.77;7.90;;;;;;;8.58;100.00;99820.38;5030770;28;20033;-86
2022/11/16 07:48:44;;;;;;;19.03;8.53;;;;;;;8.65;100.00;99839.19;5030640;28;20049;-87
2022/11/16 07:51:12;;;;;;;18.63;8.03;;;;;;;8.64;100.00;99836.72;5030294;28;20386;-87
2022/11/16 07:53:39;;;;;;;16.07;7.77;;;;;;;8.73;100.00;99835.34;5012325;28;20033;-87
2022/11/16 07:56:05;;;;;;;15.07;6.80;;;;;;;8.74;100.00;99826.22;5030557;28;20033;-87
2022/11/16 07:58:32;;;;;;;15.67;7.43;;;;;;;8.75;100.00;99844.06;5029474;28;20171;-86
2022/11/16 08:01:12;;;;;;;17.13;6.47;;;;;;;8.86;100.00;99847.91;5030460;28;20370;-87
2022/11/16 08:03:39;;;;;;;14.43;6.60;;;;;;;8.92;100.00;99837.03;5011250;28;20534;-87
2022/11/16 08:06:09;;;;;;;15.70;6.20;;;;;;;8.93;100.00;99835.97;5011851;28;20037;-86
2022/11/16 08:08:34;;;;;;;13.63;5.73;;;;;;;9.06;100.00;99843.09;5029803;28;20043;-86
2022/11/16 08:11:05;;;;;;;13.57;4.87;;;;;;;9.20;100.00;99851.84;5011428;28;20037;-87
2022/11/16 08:13:33;;;;;;;10.33;4.63;;;;;;;9.21;100.00;99850.00;5030081;28;20410;-86
2022/11/16 08:16:13;;;;;;;13.67;4.67;;;;;;;9.19;100.00;99844.78;5029507;28;20020;-89
2022/11/16 08:18:40;;;;;;;15.10;4.80;;;;;;;9.40;100.00;99867.00;5030155;28;20473;-87
2022/11/16 08:21:07;;;;;;;12.37;4.70;;;;;;;9.44;100.00;99862.78;5030033;28;20047;-87
2022/11/16 08:23:33;;;;;;;10.47;4.10;;;;;;;9.48;100.00;99860.44;5012811;28;20072;-88
2022/11/16 08:26:00;;;;;;;17.53;5.10;;;;;;;9.60;100.00;99870.28;5011599;28;20132;-87
2022/11/16 08:28:27;;;;;;;12.10;4.20;;;;;;;9.68;100.00;99862.88;5012188;28;20029;-88
2022/11/16 08:30:52;;;;;;;13.13;3.90;;;;;;;9.72;100.00;99864.06;5008851;28;20087;-87
2022/11/16 08:33:20;;;;;;;11.00;3.63;;;;;;;9.78;100.00;99858.56;5007876;28;20151;-88
2022/11/16 08:35:47;;;;;;;12.57;3.97;;;;;;;9.81;100.00;99857.28;5026320;28;20035;-88
2022/11/16 08:38:12;;;;;;;12.83;3.80;;;;;;;9.84;100.00;99864.91;5025756;28;20052;-86
2022/11/16 08:40:38;;;;;;;14.07;3.97;;;;;;;10.05;100.00;99868.16;5025935;28;20042;-88
2022/11/16 08:43:03;;;;;;;11.97;3.40;;;;;;;9.96;100.00;99871.19;5024776;28;20544;-87
2022/11/16 08:45:28;;;;;;;13.13;3.30;;;;;;;10.02;100.00;99864.00;5025413;28;20072;-87
2022/11/16 08:47:55;;;;;;;14.43;3.60;;;;;;;10.06;100.00;99853.56;5025339;28;20033;-88
2022/11/16 08:50:20;;;;;;;12.93;3.70;;;;;;;9.95;100.00;99860.59;5026513;28;20047;-88
2022/11/16 08:52:46;;;;;;;9.27;3.20;;;;;;;10.20;100.00;99870.41;5025596;28;20041;-86
2022/11/16 08:55:12;;;;;;;13.53;3.40;;;;;;;10.40;100.00;99883.66;5024500;28;20123;-87
2022/11/16 08:57:38;;;;;;;12.87;3.47;;;;;;;10.34;100.00;99876.44;5007187;28;20078;-87
2022/11/16 09:00:05;;;;;;;12.30;3.43;;;;;;;10.56;100.00;99888.38;5006020;28;20041;-88
2022/11/16 09:02:30;;;;;;;11.43;3.03;;;;;;;10.48;100.00;99883.31;5027777;28;20273;-88
2022/11/16 09:04:56;;;;;;;12.17;3.13;;;;;;;10.55;100.00;99894.88;5043247;28;20134;-88
2022/11/16 09:07:21;;;;;;;10.83;3.30;;;;;;;10.59;100.00;99896.03;5047341;28;20032;-87
2022/11/16 09:09:47;;;;;;;13.93;2.70;;;;;;;10.69;99.59;99872.94;5049124;28;20048;-88
2022/11/16 09:12:12;;;;;;;12.27;3.10;;;;;;;10.71;100.00;99897.91;5048186;28;20488;-87
2022/11/16 09:14:38;;;;;;;14.13;3.30;;;;;;;10.59;100.00;99877.09;5049689;28;20567;-86
2022/11/16 09:17:03;;;;;;;10.20;3.00;;;;;;;10.64;99.44;99900.75;5046924;28;20343;-87
2022/11/16 09:19:28;;;;;;;11.20;2.90;;;;;;;10.80;98.23;99880.25;5036914;28;20503;-88
2022/11/16 09:21:54;;;;;;;11.50;3.10;;;;;;;11.13;97.86;99887.72;5048951;28;20037;-87
2022/11/16 09:24:20;;;;;;;13.13;3.13;;;;;;;11.01;97.75;99889.63;5047804;28;20037;-87
2022/11/16 09:26:45;;;;;;;10.20;3.07;;;;;;;11.05;97.90;99893.50;5046846;28;20021;-88
2022/11/16 09:29:13;;;;;;;11.00;2.70;;;;;;;11.25;96.50;99887.69;5048637;28;20049;-87
2022/11/16 09:31:38;;;;;;;10.83;2.73;;;;;;;11.42;94.65;99886.94;5048971;28;20033;-87
2022/11/16 09:34:04;;;;;;;9.13;2.80;;;;;;;11.36;93.36;99896.88;5048602;28;20094;-88
2022/11/16 09:36:30;;;;;;;11.23;3.00;;;;;;;11.71;92.11;99892.38;5046498;28;20029;-87
2022/11/16 09:38:56;;;;;;;9.93;2.83;;;;;;;11.41;93.68;99879.88;5046930;28;20132;-87
2022/11/16 09:41:36;;;;;;;9.83;2.90;;;;;;;11.25;92.24;99887.69;5049996;28;20033;-87
2022/11/16 09:44:30;;;;;;;11.13;3.03;;;;;;;11.37;94.35;99890.38;5071863;28;20399;-87
2022/11/16 09:46:58;;;;;;;10.00;3.20;;;;;;;11.64;93.67;99892.50;5048070;28;20733;-88
2022/11/16 09:49:34;;;;;;;8.37;3.30;;;;;;;11.76;91.60;99897.91;5048473;28;20480;-87
2022/11/16 09:52:04;;;;;;;11.80;3.00;;;;;;;11.70;92.75;99899.69;5051176;28;20498;-87
2022/11/16 09:54:35;;;;;;;10.20;2.50;;;;;;;11.97;90.88;99897.25;5047970;28;20047;-87
2022/11/16 09:57:04;;;;;;;8.43;3.17;;;;;;;12.12;91.42;99895.88;5048921;28;20037;-86
2022/11/16 09:59:40;;;;;;;9.17;2.90;;;;;;;12.04;92.00;99902.50;5051321;28;20052;-87
2022/11/16 10:02:33;;;;;;;11.03;2.83;;;;;;;12.23;90.76;99903.13;5034214;28;20927;-87
2022/11/16 10:05:10;;;;;;;8.80;2.83;;;;;;;12.39;90.75;99912.34;5024121;28;20045;-87
2022/11/16 10:07:42;;;;;;;8.80;2.43;;;;;;;12.08;88.53;99905.56;5024332;28;20030;-88
2022/11/16 10:10:16;;;;;;;12.33;2.70;;;;;;;12.24;89.60;99907.47;5023255;28;20457;-87
2022/11/16 10:12:58;;;;;;;11.70;2.90;;;;;;;11.89;88.64;99899.50;5011545;28;20037;-88
2022/11/16 10:15:49;;;;;;;10.43;2.90;;;;;;;12.02;91.44;99914.69;5006015;28;20032;-87
2022/11/16 10:18:22;;;;;;;9.10;2.70;;;;;;;12.20;88.65;99911.75;5025261;28;20032;-87
2022/11/16 10:20:53;;;;;;;11.00;3.17;;;;;;;12.28;88.71;99905.06;5023973;28;20134;-86
2022/11/16 10:23:18;;;;;;;11.77;3.00;;;;;;;12.12;87.98;99896.69;5023531;28;20120;-87
2022/11/16 10:25:49;;;;;;;8.97;2.67;;;;;;;12.57;88.34;99897.69;5023923;28;20039;-87
2022/11/16 10:28:36;;;;;;;9.83;2.90;;;;;;;12.86;87.19;99900.25;5023079;28;20041;-87
2022/11/16 10:31:23;;;;;;;11.53;2.57;;;;;;;12.83;85.25;99901.59;5004330;28;20492;-86
2022/11/16 10:33:54;;;;;;;11.10;2.70;;;;;;;12.83;84.90;99907.03;5024867;28;20040;-88
2022/11/16 10:36:26;;;;;;;10.47;2.60;;;;;;;12.40;83.92;99894.16;5023756;28;20043;-87
2022/11/16 10:38:55;;;;;;;10.57;2.33;;;;;;;12.50;85.03;99897.03;5023208;28;20662;-86
2022/11/16 10:41:42;;;;;;;8.50;2.73;;;;;;;12.70;85.30;99901.13;5024073;28;20033;-87
2022/11/16 10:44:19;;;;;;;6.80;2.40;;;;;;;13.06;86.28;99888.84;5003409;28;20037;-87
2022/11/16 10:46:56;;;;;;;10.27;2.80;;;;;;;13.15;83.52;99891.94;5024098;28;20064;-86
2022/11/16 10:49:34;;;;;;;9.20;2.67;;;;;;;12.88;82.43;99889.97;5023092;28;20095;-87
2022/11/16 10:52:00;;;;;;;10.73;2.97;;;;;;;12.82;81.81;99885.53;5004568;28;20045;-86
2022/11/16 10:54:25;;;;;;;9.50;2.47;;;;;;;12.91;81.21;99875.88;4987376;28;20044;-89
2022/11/16 10:57:04;;;;;;;9.83;2.30;;;;;;;13.06;82.27;99888.03;5024541;28;20470;-87
2022/11/16 10:59:42;;;;;;;8.40;2.20;;;;;;;13.04;82.15;99895.63;5022934;28;20052;-86
2022/11/16 11:02:33;;;;;;;8.77;2.53;;;;;;;12.94;82.28;99896.31;5026566;28;20110;-88
2022/11/16 11:05:04;;;;;;;9.60;2.40;;;;;;;12.88;82.19;99892.69;5023122;28;20075;-86
2022/11/16 11:07:36;;;;;;;8.77;2.20;;;;;;;12.68;82.66;99895.94;5023398;28;20055;-86
2022/11/16 11:10:03;;;;;;;10.97;2.67;;;;;;;12.49;82.47;99896.19;5022630;28;20490;-87
2022/11/16 11:12:38;;;;;;;12.07;3.03;;;;;;;12.48;83.65;99882.84;5023073;28;20039;-86
2022/11/16 11:15:09;;;;;;;7.43;2.30;;;;;;;12.54;83.92;99898.19;5023541;28;20040;-85
2022/11/16 11:17:35;;;;;;;9.27;2.63;;;;;;;12.47;84.70;99886.63;5024931;28;20526;-86
2022/11/16 11:20:18;;;;;;;7.90;2.33;;;;;;;12.46;84.88;99885.00;5023568;28;20037;-87
2022/11/16 11:22:57;;;;;;;9.50;2.73;;;;;;;12.03;85.72;99875.63;5022506;28;20044;-87
2022/11/16 11:25:34;;;;;;;10.63;2.50;;;;;;;11.80;85.71;99878.19;5017865;28;20045;-87
2022/11/16 11:28:17;;;;;;;6.00;2.67;;;;;;;12.17;83.90;99871.50;5023359;28;20036;-88
2022/11/16 11:30:59;;;;;;;10.43;2.93;;;;;;;12.10;86.72;99868.97;5022830;28;20095;-85
2022/11/16 11:33:28;;;;;;;8.53;2.47;;;;;;;12.05;85.88;99874.31;5003843;28;20048;-87
2022/11/16 11:36:17;;;;;;;8.90;2.40;;;;;;;12.02;85.36;99863.09;5023465;28;20110;-87
2022/11/16 11:39:03;;;;;;;8.77;2.30;;;;;;;12.04;83.68;99869.13;5024039;28;20033;-86
2022/11/16 11:42:01;;;;;;;8.33;2.20;;;;;;;11.62;84.49;99865.63;5023130;28;20106;-87
2022/11/16 11:44:50;;;;;;;9.03;2.07;;;;;;;11.71;84.54;99862.53;4996205;28;20172;-86
2022/11/16 11:47:42;;;;;;;11.77;2.50;;;;;;;11.63;84.42;99867.28;5023701;28;20766;-85
2022/11/16 11:50:21;;;;;;;8.10;2.30;;;;;;;11.66;86.13;99861.38;5021915;28;20045;-86
2022/11/16 11:53:07;;;;;;;11.47;2.30;;;;;;;11.47;85.35;99858.03;5023462;28;20570;-87
2022/11/16 11:55:33;;;;;;;10.03;2.63;;;;;;;11.60;84.96;99854.22;5022533;28;20029;-86
2022/11/16 11:58:01;;;;;;;7.03;2.23;;;;;;;11.35;85.28;99857.25;5022622;28;20037;-88
2022/11/16 12:00:35;;;;;;;8.47;2.40;;;;;;;11.37;86.37;99857.84;5023037;28;20505;-86
2022/11/16 12:03:36;;;;;;;9.15;2.38;;;;;;;11.47;87.30;99862.63;5025025;28;20048;-85
2022/11/16 12:06:18;;;;;;;10.10;2.47;;;;;;;11.35;86.40;99854.53;4948399;28;20054;-86
2022/11/16 12:08:56;;;;;;;10.77;2.83;;;;;;;11.27;85.80;99849.50;5037010;28;20036;-87
2022/11/16 12:11:36;;;;;;;8.77;2.40;;;;;;;11.20;86.81;99840.69;5056960;28;20029;-86
2022/11/16 12:14:01;;;;;;;12.80;2.80;;;;;;;11.37;88.41;99840.72;5039695;28;20021;-86
2022/11/16 12:16:36;;;;;;;10.60;2.67;;;;;;;11.57;87.50;99840.31;5032747;28;20060;-86
2022/11/16 12:19:07;;;;;;;8.07;2.40;;;;;;;11.47;84.88;99840.94;5037138;28;20538;-85